createdAt,value
2022-10-20T00:00:24.268Z,23.30
2022-10-20T00:01:24.270Z,19.70
2022-10-20T00:02:24.337Z,20.80
2022-10-20T00:03:24.228Z,23.40
2022-10-20T00:04:24.218Z,20.40
2022-10-20T00:05:24.216Z,18.90
2022-10-20T00:06:24.214Z,21.90
2022-10-20T00:07:24.219Z,21.00
2022-10-20T00:08:24.174Z,19.90
2022-10-20T00:09:24.159Z,19.70
2022-10-20T00:10:24.134Z,19.20
2022-10-20T00:11:24.156Z,18.30
2022-10-20T00:12:24.157Z,17.70
2022-10-20T00:13:24.107Z,17.70
2022-10-20T00:14:24.117Z,19.00
2022-10-20T00:15:24.091Z,17.00
2022-10-20T00:16:24.080Z,19.80
2022-10-20T00:17:24.046Z,18.50
2022-10-20T00:18:24.025Z,20.60
2022-10-20T00:19:24.021Z,22.60
2022-10-20T00:20:24.001Z,24.50
2022-10-20T00:21:24.025Z,19.70
2022-10-20T00:22:24.038Z,20.80
2022-10-20T00:23:23.969Z,19.20
2022-10-20T00:24:23.944Z,20.40
2022-10-20T00:25:23.942Z,16.50
2022-10-20T00:26:23.954Z,15.80
2022-10-20T00:27:23.950Z,17.70
2022-10-20T00:28:23.899Z,14.80
2022-10-20T00:29:23.890Z,24.00
2022-10-20T00:30:25.686Z,20.80
2022-10-20T00:31:23.862Z,20.40
2022-10-20T00:32:23.873Z,24.80
2022-10-20T00:33:23.831Z,19.10
2022-10-20T00:34:23.816Z,25.30
2022-10-20T00:35:23.805Z,23.20
2022-10-20T00:36:23.788Z,22.50
2022-10-20T00:37:23.797Z,20.40
2022-10-20T00:38:23.791Z,20.00
2022-10-20T00:39:23.755Z,21.50
2022-10-20T00:40:23.747Z,22.50
2022-10-20T00:41:23.751Z,22.80
2022-10-20T00:42:23.707Z,21.60
2022-10-20T00:43:23.731Z,20.00
2022-10-20T00:44:23.673Z,18.50
2022-10-20T00:45:23.678Z,19.60
2022-10-20T00:46:23.651Z,21.30
2022-10-20T00:47:23.663Z,20.10
2022-10-20T00:48:23.625Z,22.20
2022-10-20T00:49:23.642Z,21.20
2022-10-20T00:50:23.604Z,23.70
2022-10-20T00:51:23.583Z,25.70
2022-10-20T00:52:23.596Z,23.10
2022-10-20T00:53:23.570Z,24.60
2022-10-20T00:54:23.583Z,23.80
2022-10-20T00:55:23.533Z,27.60
2022-10-20T00:56:23.511Z,22.70
2022-10-20T00:57:23.584Z,23.90
2022-10-20T00:58:23.494Z,20.80
2022-10-20T00:59:23.509Z,24.70
2022-10-20T01:00:23.475Z,22.80
2022-10-20T01:01:23.488Z,23.80
2022-10-20T01:02:23.436Z,22.30
2022-10-20T01:03:23.425Z,23.30
2022-10-20T01:04:23.435Z,22.60
2022-10-20T01:05:23.402Z,21.10
2022-10-20T01:06:23.401Z,23.50
2022-10-20T01:07:23.369Z,27.20
2022-10-20T01:08:23.359Z,23.90
2022-10-20T01:09:23.370Z,28.10
2022-10-20T01:10:23.368Z,28.50
2022-10-20T01:11:23.317Z,26.00
2022-10-20T01:12:23.322Z,26.80
2022-10-20T01:13:23.297Z,24.30
2022-10-20T01:14:23.298Z,23.80
2022-10-20T01:16:23.247Z,29.50
2022-10-20T01:17:23.248Z,27.80
2022-10-20T01:18:23.242Z,26.10
2022-10-20T01:19:23.249Z,32.00
2022-10-20T01:20:23.213Z,31.30
2022-10-20T01:21:23.194Z,28.60
2022-10-20T01:22:23.164Z,26.80
2022-10-20T01:23:23.202Z,24.60
2022-10-20T01:24:23.234Z,24.60
2022-10-20T01:25:23.134Z,25.20
2022-10-20T01:26:23.153Z,20.80
2022-10-20T01:27:23.109Z,21.70
2022-10-20T01:28:23.111Z,21.30
2022-10-20T01:29:23.092Z,21.20
2022-10-20T01:30:23.094Z,24.70
2022-10-20T01:31:23.058Z,19.90
2022-10-20T01:32:23.066Z,22.20
2022-10-20T01:33:23.125Z,25.50
2022-10-20T01:34:23.008Z,25.60
2022-10-20T01:35:23.008Z,26.20
2022-10-20T01:36:22.992Z,25.70
2022-10-20T01:37:34.175Z,25.90
2022-10-20T01:38:22.994Z,22.80
2022-10-20T01:39:22.954Z,22.10
2022-10-20T01:40:22.938Z,25.90
2022-10-20T01:41:22.948Z,21.50
2022-10-20T01:42:22.960Z,22.60
2022-10-20T01:43:22.898Z,18.80
2022-10-20T01:44:22.881Z,21.60
2022-10-20T01:45:22.868Z,25.00
2022-10-20T01:46:22.879Z,24.00
2022-10-20T01:47:22.865Z,28.60
2022-10-20T01:48:22.846Z,30.00
2022-10-20T01:49:22.814Z,27.70
2022-10-20T01:50:22.801Z,23.50
2022-10-20T01:51:22.785Z,27.30
2022-10-20T01:52:22.817Z,28.00
2022-10-20T01:53:22.766Z,24.40
2022-10-20T01:54:22.743Z,19.90
2022-10-20T01:55:22.729Z,22.90
2022-10-20T01:56:22.743Z,23.30
2022-10-20T01:57:22.708Z,24.70
2022-10-20T01:58:22.695Z,19.50
2022-10-20T01:59:22.704Z,20.10
2022-10-20T02:00:22.664Z,23.60
2022-10-20T02:01:22.715Z,29.30
2022-10-20T02:02:22.669Z,24.10
2022-10-20T02:03:22.655Z,21.20
2022-10-20T02:04:22.632Z,22.90
2022-10-20T02:05:22.608Z,19.90
2022-10-20T02:06:22.583Z,24.50
2022-10-20T02:07:22.612Z,22.90
2022-10-20T02:08:22.556Z,24.60
2022-10-20T02:09:22.567Z,25.60
2022-10-20T02:10:22.531Z,27.90
2022-10-20T02:11:22.525Z,29.10
2022-10-20T02:12:22.497Z,29.50
2022-10-20T02:13:22.533Z,29.80
2022-10-20T02:14:22.487Z,33.10
2022-10-20T02:15:22.466Z,25.70
2022-10-20T02:16:22.449Z,27.70
2022-10-20T02:17:22.470Z,25.40
2022-10-20T02:18:22.415Z,24.90
2022-10-20T02:19:22.415Z,29.00
2022-10-20T02:20:22.399Z,25.20
2022-10-20T02:21:22.380Z,27.10
2022-10-20T02:22:22.396Z,27.10
2022-10-20T02:23:22.399Z,26.40
2022-10-20T02:24:22.336Z,29.20
2022-10-20T02:25:22.346Z,28.60
2022-10-20T02:26:22.356Z,26.10
2022-10-20T02:27:22.299Z,25.00
2022-10-20T02:28:22.291Z,26.10
2022-10-20T02:29:22.298Z,28.40
2022-10-20T02:30:22.274Z,25.40
2022-10-20T02:31:22.264Z,24.00
2022-10-20T02:32:22.236Z,26.00
2022-10-20T02:33:22.235Z,24.80
2022-10-20T02:34:22.255Z,34.00
2022-10-20T02:35:22.221Z,39.70
2022-10-20T02:36:22.191Z,30.50
2022-10-20T02:37:22.185Z,28.60
2022-10-20T02:38:22.156Z,28.90
2022-10-20T02:39:22.145Z,28.90
2022-10-20T02:40:22.153Z,29.40
2022-10-20T02:41:22.113Z,23.40
2022-10-20T02:42:22.156Z,26.80
2022-10-20T02:43:22.100Z,35.00
2022-10-20T02:44:22.069Z,36.40
2022-10-20T02:45:22.211Z,37.20
2022-10-20T02:46:22.049Z,33.40
2022-10-20T02:47:22.065Z,33.90
2022-10-20T02:48:22.026Z,30.80
2022-10-20T02:49:22.020Z,31.80
2022-10-20T02:50:22.032Z,28.00
2022-10-20T02:51:21.981Z,29.30
2022-10-20T02:52:21.985Z,25.00
2022-10-20T02:53:21.955Z,23.90
2022-10-20T02:54:21.954Z,27.80
2022-10-20T02:55:21.970Z,28.10
2022-10-20T02:56:21.914Z,28.30
2022-10-20T02:57:21.912Z,21.10
2022-10-20T02:58:21.920Z,26.60
2022-10-20T02:59:21.874Z,25.30
2022-10-20T03:00:21.865Z,25.10
2022-10-20T03:01:21.872Z,24.40
2022-10-20T03:02:21.845Z,24.10
2022-10-20T03:03:21.816Z,22.10
2022-10-20T03:04:21.886Z,27.60
2022-10-20T03:05:21.791Z,21.00
2022-10-20T03:06:21.779Z,20.90
2022-10-20T03:07:21.781Z,21.70
2022-10-20T03:08:21.751Z,21.30
2022-10-20T03:09:21.775Z,22.70
2022-10-20T03:10:21.755Z,21.80
2022-10-20T03:11:21.719Z,21.30
2022-10-20T03:12:21.704Z,22.90
2022-10-20T03:13:21.706Z,22.20
2022-10-20T03:14:21.678Z,21.90
2022-10-20T03:15:21.687Z,22.50
2022-10-20T03:16:21.654Z,19.10
2022-10-20T03:17:21.662Z,19.70
2022-10-20T03:18:21.622Z,19.20
2022-10-20T03:19:21.607Z,20.40
2022-10-20T03:20:21.618Z,17.90
2022-10-20T03:21:21.582Z,17.70
2022-10-20T03:22:21.683Z,20.10
2022-10-20T03:23:21.583Z,17.30
2022-10-20T03:24:21.548Z,20.30
2022-10-20T03:25:21.521Z,23.00
2022-10-20T03:26:21.515Z,20.10
2022-10-20T03:27:21.495Z,20.90
2022-10-20T03:28:21.607Z,24.40
2022-10-20T03:29:21.547Z,19.50
2022-10-20T03:30:21.467Z,17.50
2022-10-20T03:31:21.459Z,18.50
2022-10-20T03:32:21.438Z,18.50
2022-10-20T03:33:21.432Z,23.20
2022-10-20T03:34:21.481Z,21.80
2022-10-20T03:35:21.389Z,18.90
2022-10-20T03:36:21.382Z,18.90
2022-10-20T03:37:21.365Z,22.90
2022-10-20T03:38:21.357Z,26.10
2022-10-20T03:39:21.370Z,21.40
2022-10-20T03:40:21.325Z,20.50
2022-10-20T03:41:21.309Z,20.10
2022-10-20T03:42:21.303Z,18.60
2022-10-20T03:43:21.303Z,18.40
2022-10-20T03:44:21.260Z,20.50
2022-10-20T03:45:21.291Z,20.50
2022-10-20T03:46:21.242Z,19.40
2022-10-20T03:47:21.227Z,19.60
2022-10-20T03:48:21.245Z,21.10
2022-10-20T03:49:21.233Z,18.00
2022-10-20T03:50:21.183Z,21.10
2022-10-20T03:51:21.169Z,20.90
2022-10-20T03:52:21.160Z,20.00
2022-10-20T03:53:21.148Z,19.30
2022-10-20T03:54:21.172Z,20.30
2022-10-20T03:55:21.119Z,22.40
2022-10-20T03:56:21.108Z,20.20
2022-10-20T03:57:21.099Z,18.90
2022-10-20T03:58:21.087Z,23.70
2022-10-20T03:59:22.161Z,21.90
2022-10-20T04:00:21.068Z,23.30
2022-10-20T04:01:21.137Z,25.40
2022-10-20T04:02:21.038Z,23.40
2022-10-20T04:03:21.039Z,19.90
2022-10-20T04:04:21.041Z,23.00
2022-10-20T04:05:20.983Z,21.20
2022-10-20T04:06:20.979Z,23.70
2022-10-20T04:07:20.987Z,78.30
2022-10-20T04:08:21.004Z,93.20
2022-10-20T04:09:20.963Z,102.60
2022-10-20T04:10:20.915Z,175.50
2022-10-20T04:11:20.914Z,106.40
2022-10-20T04:12:20.895Z,154.30
2022-10-20T04:13:20.932Z,201.00
2022-10-20T04:14:20.905Z,158.30
2022-10-20T04:15:20.852Z,108.80
2022-10-20T04:16:20.885Z,108.50
2022-10-20T04:17:20.828Z,80.30
2022-10-20T04:18:20.825Z,87.90
2022-10-20T04:19:20.802Z,209.60
2022-10-20T04:20:20.811Z,217.30
2022-10-20T04:21:20.781Z,257.40
2022-10-20T04:22:20.764Z,252.40
2022-10-20T04:23:20.745Z,239.90
2022-10-20T04:24:20.793Z,200.50
2022-10-20T04:25:20.745Z,153.40
2022-10-20T04:26:20.714Z,124.60
2022-10-20T04:27:20.719Z,113.40
2022-10-20T04:28:20.714Z,119.00
2022-10-20T04:29:20.669Z,109.90
2022-10-20T04:30:20.712Z,86.30
2022-10-20T04:31:20.650Z,62.40
2022-10-20T04:32:20.629Z,66.10
2022-10-20T04:33:20.651Z,68.00
2022-10-20T04:34:20.608Z,106.40
2022-10-20T04:35:20.589Z,118.60
2022-10-20T04:36:20.583Z,114.40
2022-10-20T04:37:20.553Z,104.40
2022-10-20T04:38:20.582Z,118.30
2022-10-20T04:39:20.538Z,123.60
2022-10-20T04:40:20.520Z,165.90
2022-10-20T04:41:20.506Z,175.10
2022-10-20T04:42:20.491Z,209.90
2022-10-20T04:43:20.513Z,286.60
2022-10-20T04:44:20.500Z,288.30
2022-10-20T04:45:20.480Z,255.40
2022-10-20T04:46:20.443Z,199.30
2022-10-20T04:47:20.415Z,103.20
2022-10-20T04:48:20.417Z,195.30
2022-10-20T04:49:20.402Z,196.60
2022-10-20T04:50:20.419Z,187.20
2022-10-20T04:51:20.381Z,177.90
2022-10-20T04:52:20.358Z,176.50
2022-10-20T04:53:20.351Z,168.80
2022-10-20T04:54:20.360Z,167.40
2022-10-20T04:55:20.350Z,157.10
2022-10-20T04:56:20.318Z,147.80
2022-10-20T04:57:20.323Z,135.10
2022-10-20T04:58:20.276Z,141.10
2022-10-20T04:59:20.259Z,137.70
2022-10-20T05:00:20.297Z,129.20
2022-10-20T05:01:20.347Z,134.30
2022-10-20T05:02:20.234Z,122.40
2022-10-20T05:03:20.210Z,121.60
2022-10-20T05:04:20.228Z,166.20
2022-10-20T05:05:20.191Z,182.40
2022-10-20T05:06:20.194Z,166.50
2022-10-20T05:07:20.188Z,162.40
2022-10-20T05:08:20.140Z,240.60
2022-10-20T05:09:20.138Z,239.20
2022-10-20T05:10:20.125Z,197.50
2022-10-20T05:11:20.118Z,201.00
2022-10-20T05:12:20.130Z,210.20
2022-10-20T05:13:20.074Z,177.50
2022-10-20T05:14:20.072Z,153.20
2022-10-20T05:15:20.079Z,151.90
2022-10-20T05:16:20.070Z,153.10
2022-10-20T05:17:20.026Z,175.60
2022-10-20T05:18:20.030Z,203.30
2022-10-20T05:19:20.015Z,225.10
2022-10-20T05:20:19.997Z,226.90
2022-10-20T05:21:19.968Z,178.80
2022-10-20T05:22:19.970Z,186.30
2022-10-20T05:23:19.973Z,209.40
2022-10-20T05:24:21.546Z,221.40
2022-10-20T05:25:36.803Z,222.30
2022-10-20T05:26:19.907Z,254.90
2022-10-20T05:27:19.911Z,254.30
2022-10-20T05:28:19.887Z,287.30
2022-10-20T05:29:19.861Z,286.00
2022-10-20T05:30:19.858Z,288.20
2022-10-20T05:31:19.870Z,293.90
2022-10-20T05:32:19.828Z,303.60
2022-10-20T05:33:19.809Z,305.60
2022-10-20T05:34:19.795Z,262.00
2022-10-20T05:35:19.810Z,294.60
2022-10-20T05:36:21.673Z,290.60
2022-10-20T05:39:50.832Z,332.90
2022-10-20T05:39:55.698Z,335.00
2022-10-20T05:40:55.682Z,334.50
2022-10-20T05:41:55.674Z,358.90
2022-10-20T05:42:55.652Z,271.20
2022-10-20T05:43:55.679Z,289.80
2022-10-20T05:44:55.651Z,282.10
2022-10-20T05:45:55.636Z,202.60
2022-10-20T05:46:55.599Z,192.60
2022-10-20T05:47:55.590Z,199.70
2022-10-20T05:48:55.610Z,190.00
2022-10-20T05:49:55.583Z,204.10
2022-10-20T05:50:55.548Z,180.40
2022-10-20T05:51:55.539Z,183.10
2022-10-20T05:52:55.527Z,230.50
2022-10-20T05:53:55.544Z,249.10
2022-10-20T05:54:55.507Z,214.10
2022-10-20T05:55:55.493Z,181.30
2022-10-20T05:56:55.493Z,148.80
2022-10-20T05:57:55.458Z,116.30
2022-10-20T05:58:55.472Z,48.00
2022-10-20T05:59:55.461Z,75.90
2022-10-20T06:00:55.413Z,86.70
2022-10-20T06:01:55.399Z,94.30
2022-10-20T06:02:55.393Z,83.80
2022-10-20T06:03:55.431Z,92.20
2022-10-20T06:04:55.412Z,59.60
2022-10-20T06:05:55.344Z,36.00
2022-10-20T06:06:55.357Z,63.20
2022-10-20T06:07:55.326Z,62.60
2022-10-20T06:08:55.388Z,70.30
2022-10-20T06:09:55.320Z,69.50
2022-10-20T06:10:55.292Z,75.30
2022-10-20T06:11:55.351Z,66.40
2022-10-20T06:12:55.251Z,72.60
2022-10-20T06:13:55.274Z,49.60
2022-10-20T06:14:55.245Z,57.20
2022-10-20T06:15:55.215Z,56.10
2022-10-20T06:16:55.215Z,40.30
2022-10-20T06:17:55.212Z,44.70
2022-10-20T06:18:55.168Z,28.70
2022-10-20T06:19:55.359Z,25.80
2022-10-20T06:20:55.144Z,20.30
2022-10-20T06:21:55.146Z,20.80
2022-10-20T06:22:55.111Z,26.80
2022-10-20T06:23:55.110Z,37.20
2022-10-20T06:24:55.085Z,39.90
2022-10-20T06:25:55.122Z,33.70
2022-10-20T06:26:55.069Z,34.70
2022-10-20T06:27:55.059Z,28.80
2022-10-20T06:28:58.612Z,59.00
2022-10-20T06:29:55.047Z,26.80
2022-10-20T06:30:55.062Z,14.00
2022-10-20T06:31:55.006Z,9.10
2022-10-20T06:32:55.002Z,9.20
2022-10-20T06:33:54.978Z,7.50
2022-10-20T06:34:54.952Z,8.20
2022-10-20T06:35:54.984Z,6.80
2022-10-20T06:36:54.934Z,7.50
2022-10-20T06:37:54.918Z,7.80
2022-10-20T06:38:54.921Z,5.20
2022-10-20T06:39:54.913Z,6.70
2022-10-20T06:40:54.918Z,6.50
2022-10-20T06:41:54.864Z,8.80
2022-10-20T06:43:54.835Z,7.50
2022-10-20T06:44:54.822Z,5.70
2022-10-20T06:45:54.852Z,6.00
2022-10-20T06:46:54.915Z,13.20
2022-10-20T06:47:54.801Z,17.80
2022-10-20T06:48:58.578Z,6.90
2022-10-20T06:49:54.758Z,6.20
2022-10-20T06:50:54.767Z,34.50
2022-10-20T06:51:54.832Z,20.90
2022-10-20T06:52:54.721Z,7.50
2022-10-20T06:53:54.710Z,6.10
2022-10-20T06:54:54.708Z,6.90
2022-10-20T06:55:54.679Z,8.30
2022-10-20T06:56:54.690Z,6.20
2022-10-20T06:57:54.652Z,5.90
2022-10-20T06:58:54.640Z,5.90
2022-10-20T06:59:54.624Z,5.20
2022-10-20T07:00:54.613Z,6.80
2022-10-20T07:01:54.721Z,7.60
2022-10-20T07:02:54.585Z,6.80
2022-10-20T07:03:54.584Z,7.90
2022-10-20T07:04:54.556Z,7.30
2022-10-20T07:05:54.576Z,5.50
2022-10-20T07:06:54.563Z,7.00
2022-10-20T07:07:54.514Z,6.80
2022-10-20T07:08:54.592Z,6.60
2022-10-20T07:09:54.484Z,6.60
2022-10-20T07:10:54.474Z,7.90
2022-10-20T07:11:54.496Z,10.20
2022-10-20T07:12:54.482Z,12.50
2022-10-20T07:13:54.452Z,10.10
2022-10-20T07:14:54.420Z,10.40
2022-10-20T07:15:54.405Z,10.80
2022-10-20T07:16:54.397Z,9.40
2022-10-20T07:17:54.400Z,10.00
2022-10-20T07:18:54.401Z,8.90
2022-10-20T07:19:54.357Z,7.60
2022-10-20T07:20:54.379Z,5.00
2022-10-20T07:21:54.335Z,6.40
2022-10-20T07:22:54.350Z,6.70
2022-10-20T07:23:54.312Z,6.20
2022-10-20T07:24:54.293Z,8.10
2022-10-20T07:25:54.272Z,6.20
2022-10-20T07:26:54.296Z,7.20
2022-10-20T07:27:54.246Z,6.20
2022-10-20T07:28:55.987Z,5.20
2022-10-20T07:29:54.228Z,7.30
2022-10-20T07:30:54.221Z,6.10
2022-10-20T07:31:55.981Z,9.40
2022-10-20T07:32:54.178Z,12.10
2022-10-20T07:34:13.294Z,11.30
2022-10-20T07:34:54.160Z,26.20
2022-10-20T07:35:54.203Z,17.10
2022-10-20T07:36:54.145Z,35.30
2022-10-20T07:37:54.110Z,12.50
2022-10-20T07:38:54.131Z,17.10
2022-10-20T07:39:54.112Z,19.10
2022-10-20T07:40:55.655Z,13.80
2022-10-20T07:41:54.073Z,9.20
2022-10-20T07:42:54.053Z,6.00
2022-10-20T07:43:54.050Z,6.30
2022-10-20T07:44:54.047Z,9.20
2022-10-20T07:45:54.014Z,6.10
2022-10-20T07:46:53.998Z,4.90
2022-10-20T07:47:53.990Z,6.30
2022-10-20T07:48:53.975Z,4.20
2022-10-20T07:49:53.976Z,6.10
2022-10-20T07:50:53.944Z,4.50
2022-10-20T07:51:53.948Z,4.60
2022-10-20T07:52:53.913Z,4.00
2022-10-20T07:53:58.123Z,7.30
2022-10-20T07:55:01.607Z,7.00
2022-10-20T07:55:53.871Z,4.70
2022-10-20T07:56:53.877Z,3.60
2022-10-20T07:57:53.872Z,5.50
2022-10-20T07:58:53.868Z,4.80
2022-10-20T07:59:53.821Z,6.80
2022-10-20T08:00:53.823Z,3.60
2022-10-20T08:01:56.362Z,3.40
2022-10-20T08:02:53.823Z,3.30
2022-10-20T08:03:53.785Z,4.30
2022-10-20T08:04:53.752Z,6.20
2022-10-20T08:05:53.773Z,5.40
2022-10-20T08:06:53.766Z,3.70
2022-10-20T08:07:53.713Z,5.50
2022-10-20T08:08:53.736Z,5.20
2022-10-20T08:09:53.688Z,5.40
2022-10-20T08:10:53.704Z,5.60
2022-10-20T08:11:55.515Z,3.80
2022-10-20T08:12:53.679Z,4.10
2022-10-20T08:13:53.643Z,5.80
2022-10-20T08:14:54.572Z,4.80
2022-10-20T08:15:55.509Z,4.70
2022-10-20T08:16:57.014Z,4.40
2022-10-20T08:17:53.575Z,5.00
2022-10-20T08:19:57.010Z,5.10
2022-10-20T08:20:53.594Z,4.10
2022-10-20T08:21:53.526Z,5.40
2022-10-20T08:22:53.509Z,4.40
2022-10-20T08:23:53.496Z,5.40
2022-10-20T08:24:53.508Z,4.90
2022-10-20T08:25:53.463Z,6.30
2022-10-20T08:26:53.475Z,5.30
2022-10-20T08:27:53.474Z,3.90
2022-10-20T08:28:53.441Z,4.50
2022-10-20T08:30:00.222Z,4.10
2022-10-20T08:30:53.413Z,5.30
2022-10-20T08:31:53.388Z,5.60
2022-10-20T08:32:53.397Z,4.00
2022-10-20T08:33:53.454Z,6.10
2022-10-20T08:34:53.381Z,3.90
2022-10-20T08:35:53.351Z,6.90
2022-10-20T08:36:53.371Z,8.00
2022-10-20T08:37:53.323Z,4.50
2022-10-20T08:38:53.301Z,5.00
2022-10-20T08:39:53.309Z,6.80
2022-10-20T08:40:53.275Z,3.80
2022-10-20T08:42:08.153Z,4.90
2022-10-20T08:42:53.258Z,6.50
2022-10-20T08:43:53.244Z,6.10
2022-10-20T08:44:53.219Z,4.30
2022-10-20T08:45:53.241Z,4.20
2022-10-20T08:46:53.226Z,4.60
2022-10-20T08:47:53.179Z,4.50
2022-10-20T08:48:53.172Z,5.20
2022-10-20T08:49:53.158Z,4.60
2022-10-20T08:50:53.155Z,3.10
2022-10-20T08:51:53.149Z,4.30
2022-10-20T08:52:53.115Z,3.10
2022-10-20T08:53:53.096Z,4.10
2022-10-20T08:54:53.105Z,4.60
2022-10-20T08:55:53.119Z,3.40
2022-10-20T08:56:53.066Z,5.80
2022-10-20T08:57:53.046Z,11.10
2022-10-20T08:58:53.039Z,12.10
2022-10-20T08:59:53.091Z,6.30
2022-10-20T09:00:53.013Z,6.30
2022-10-20T09:01:53.085Z,5.70
2022-10-20T09:02:52.973Z,5.20
2022-10-20T09:03:52.969Z,3.90
2022-10-20T09:04:53.021Z,5.70
2022-10-20T09:05:52.959Z,4.20
2022-10-20T09:06:52.932Z,4.60
2022-10-20T09:07:52.910Z,5.70
2022-10-20T09:08:52.990Z,7.60
2022-10-20T09:09:52.886Z,3.60
2022-10-20T09:10:52.899Z,4.40
2022-10-20T09:11:52.860Z,5.70
2022-10-20T09:12:52.858Z,6.50
2022-10-20T09:13:52.857Z,4.90
2022-10-20T09:14:52.823Z,4.80
2022-10-20T09:15:52.845Z,4.50
2022-10-20T09:17:00.110Z,4.50
2022-10-20T09:17:52.785Z,4.80
2022-10-20T09:18:52.826Z,3.40
2022-10-20T09:19:52.767Z,6.40
2022-10-20T09:20:52.770Z,4.80
2022-10-20T09:21:52.746Z,6.20
2022-10-20T09:22:52.781Z,5.60
2022-10-20T09:23:52.746Z,6.50
2022-10-20T09:24:52.698Z,3.80
2022-10-20T09:25:52.676Z,4.20
2022-10-20T09:26:58.854Z,3.60
2022-10-20T09:27:52.659Z,6.00
2022-10-20T09:29:12.009Z,3.90
2022-10-20T09:29:52.675Z,5.00
2022-10-20T09:30:52.615Z,4.30
2022-10-20T09:31:52.615Z,4.30
2022-10-20T09:32:52.618Z,6.10
2022-10-20T09:33:52.582Z,5.50
2022-10-20T09:34:52.550Z,8.70
2022-10-20T09:35:52.572Z,7.00
2022-10-20T09:36:52.536Z,5.80
2022-10-20T09:37:52.518Z,8.00
2022-10-20T09:38:52.515Z,6.20
2022-10-20T09:39:55.468Z,7.10
2022-10-20T09:40:52.500Z,5.70
2022-10-20T09:41:52.492Z,3.60
2022-10-20T09:42:52.456Z,5.80
2022-10-20T09:43:54.445Z,5.90
2022-10-20T09:44:52.423Z,5.80
2022-10-20T09:45:52.430Z,4.30
2022-10-20T09:46:52.407Z,6.20
2022-10-20T09:47:52.377Z,6.20
2022-10-20T09:48:52.384Z,5.20
2022-10-20T09:49:54.246Z,5.30
2022-10-20T09:50:52.347Z,5.50
2022-10-20T09:52:52.317Z,6.20
2022-10-20T09:53:52.382Z,5.10
2022-10-20T09:54:52.291Z,7.10
2022-10-20T09:55:52.294Z,5.50
2022-10-20T09:56:52.275Z,4.80
2022-10-20T09:57:52.274Z,5.80
2022-10-20T09:58:52.227Z,6.10
2022-10-20T09:59:52.223Z,4.80
2022-10-20T10:00:52.467Z,5.70
2022-10-20T10:01:52.244Z,6.00
2022-10-20T10:02:59.121Z,5.30
2022-10-20T10:03:52.169Z,8.50
2022-10-20T10:04:52.143Z,5.80
2022-10-20T10:05:52.182Z,6.10
2022-10-20T10:06:52.164Z,5.70
2022-10-20T10:07:52.104Z,5.00
2022-10-20T10:08:52.154Z,7.10
2022-10-20T10:09:52.088Z,6.40
2022-10-20T10:10:52.086Z,4.90
2022-10-20T10:11:52.088Z,6.90
2022-10-20T10:12:52.044Z,5.10
2022-10-20T10:13:52.018Z,7.30
2022-10-20T10:14:52.060Z,4.20
2022-10-20T10:15:51.999Z,5.10
2022-10-20T10:16:52.024Z,6.00
2022-10-20T10:17:51.969Z,5.80
2022-10-20T10:18:51.962Z,4.90
2022-10-20T10:19:55.421Z,4.60
2022-10-20T10:20:51.950Z,3.90
2022-10-20T10:21:51.964Z,6.00
2022-10-20T10:22:51.947Z,5.10
2022-10-20T10:23:51.889Z,4.90
2022-10-20T10:24:51.883Z,5.10
2022-10-20T10:25:51.900Z,3.80
2022-10-20T10:26:51.898Z,6.60
2022-10-20T10:27:51.846Z,3.90
2022-10-20T10:28:51.837Z,4.50
2022-10-20T10:29:51.809Z,5.80
2022-10-20T10:30:51.821Z,3.70
2022-10-20T10:31:51.789Z,5.40
2022-10-20T10:32:51.811Z,4.70
2022-10-20T10:33:51.793Z,6.40
2022-10-20T10:34:51.745Z,4.80
2022-10-20T10:35:51.758Z,4.60
2022-10-20T10:36:51.748Z,6.40
2022-10-20T10:37:51.712Z,4.40
2022-10-20T10:38:51.702Z,6.90
2022-10-20T10:39:51.681Z,6.70
2022-10-20T10:40:51.696Z,6.00
2022-10-20T10:41:51.729Z,6.10
2022-10-20T10:42:51.745Z,6.40
2022-10-20T10:43:51.663Z,6.50
2022-10-20T10:44:51.610Z,8.70
2022-10-20T10:45:51.599Z,6.70
2022-10-20T10:46:51.637Z,10.80
2022-10-20T10:47:51.573Z,6.80
2022-10-20T10:48:51.571Z,4.80
2022-10-20T10:49:51.547Z,6.40
2022-10-20T10:50:51.543Z,6.20
2022-10-20T10:51:51.537Z,7.30
2022-10-20T10:52:51.551Z,5.20
2022-10-20T10:53:51.511Z,5.70
2022-10-20T10:54:51.489Z,6.30
2022-10-20T10:55:51.488Z,5.80
2022-10-20T10:56:51.483Z,7.50
2022-10-20T10:57:51.472Z,4.90
2022-10-20T10:58:51.434Z,6.90
2022-10-20T10:59:51.427Z,6.10
2022-10-20T11:00:51.465Z,4.10
2022-10-20T11:01:51.395Z,4.80
2022-10-20T11:02:51.419Z,6.50
2022-10-20T11:03:51.426Z,5.30
2022-10-20T11:04:51.362Z,6.60
2022-10-20T11:05:51.349Z,7.40
2022-10-20T11:06:54.259Z,7.00
2022-10-20T11:07:51.361Z,4.90
2022-10-20T11:08:51.396Z,6.00
2022-10-20T11:09:51.294Z,4.40
2022-10-20T11:10:51.276Z,5.30
2022-10-20T11:11:51.266Z,5.20
2022-10-20T11:12:51.284Z,6.00
2022-10-20T11:13:51.240Z,4.90
2022-10-20T11:14:51.253Z,4.80
2022-10-20T11:15:51.212Z,6.90
2022-10-20T11:16:51.191Z,4.10
2022-10-20T11:17:51.213Z,7.60
2022-10-20T11:18:51.174Z,4.70
2022-10-20T11:19:51.169Z,4.70
2022-10-20T11:20:51.149Z,4.50
2022-10-20T11:21:51.180Z,5.50
2022-10-20T11:22:51.116Z,4.60
2022-10-20T11:23:51.119Z,5.90
2022-10-20T11:24:51.094Z,6.90
2022-10-20T11:25:51.099Z,4.20
2022-10-20T11:26:51.152Z,5.40
2022-10-20T11:27:51.066Z,5.00
2022-10-20T11:28:51.037Z,4.50
2022-10-20T11:29:51.037Z,5.60
2022-10-20T11:30:51.029Z,5.10
2022-10-20T11:31:51.027Z,6.50
2022-10-20T11:32:51.016Z,6.00
2022-10-20T11:33:50.988Z,5.70
2022-10-20T11:34:50.965Z,6.10
2022-10-20T11:35:50.952Z,5.70
2022-10-20T11:36:50.995Z,5.10
2022-10-20T11:37:50.926Z,7.40
2022-10-20T11:38:50.949Z,4.70
2022-10-20T11:39:50.941Z,5.60
2022-10-20T11:40:50.878Z,6.40
2022-10-20T11:41:50.870Z,5.50
2022-10-20T11:42:50.866Z,5.90
2022-10-20T11:43:50.852Z,5.30
2022-10-20T11:44:50.865Z,7.10
2022-10-20T11:45:50.827Z,6.10
2022-10-20T11:46:50.854Z,6.40
2022-10-20T11:47:50.798Z,7.20
2022-10-20T11:48:50.769Z,6.30
2022-10-20T11:49:50.770Z,7.40
2022-10-20T11:50:50.760Z,6.10
2022-10-20T11:51:50.754Z,4.80
2022-10-20T11:52:50.749Z,7.50
2022-10-20T11:53:50.721Z,5.30
2022-10-20T11:54:50.703Z,7.80
2022-10-20T11:55:50.688Z,7.00
2022-10-20T11:56:50.713Z,6.90
2022-10-20T11:57:50.679Z,4.80
2022-10-20T11:58:50.671Z,7.00
2022-10-20T11:59:50.690Z,4.80
2022-10-20T12:00:50.622Z,6.30
2022-10-20T12:01:50.628Z,5.60
2022-10-20T12:02:50.594Z,5.10
2022-10-20T12:03:50.598Z,3.90
2022-10-20T12:04:50.603Z,6.10
2022-10-20T12:05:50.568Z,5.10
2022-10-20T12:06:50.557Z,6.70
2022-10-20T12:07:54.111Z,7.10
2022-10-20T12:08:50.582Z,4.10
2022-10-20T12:09:50.512Z,6.90
2022-10-20T12:10:50.502Z,7.30
2022-10-20T12:11:50.496Z,6.10
2022-10-20T12:12:50.469Z,4.80
2022-10-20T12:13:50.464Z,6.60
2022-10-20T12:14:50.494Z,5.30
2022-10-20T12:15:50.443Z,5.50
2022-10-20T12:16:50.445Z,6.70
2022-10-20T12:17:50.505Z,6.60
2022-10-20T12:18:50.426Z,5.40
2022-10-20T12:19:50.420Z,6.90
2022-10-20T12:20:50.452Z,7.80
2022-10-20T12:21:50.379Z,7.20
2022-10-20T12:22:50.336Z,6.60
2022-10-20T12:23:50.353Z,6.90
2022-10-20T12:24:50.365Z,7.90
2022-10-20T12:25:50.308Z,5.70
2022-10-20T12:26:50.324Z,7.50
2022-10-20T12:27:50.336Z,5.90
2022-10-20T12:28:50.270Z,8.80
2022-10-20T12:29:50.294Z,8.00
2022-10-20T12:30:50.312Z,8.30
2022-10-20T12:31:53.596Z,7.90
2022-10-20T12:32:50.205Z,7.40
2022-10-20T12:33:50.189Z,9.10
2022-10-20T12:34:50.226Z,8.70
2022-10-20T12:35:50.168Z,7.00
2022-10-20T12:36:50.191Z,6.90
2022-10-20T12:37:50.156Z,7.10
2022-10-20T12:38:50.137Z,5.30
2022-10-20T12:39:50.153Z,7.60
2022-10-20T12:40:50.170Z,6.10
2022-10-20T12:41:50.098Z,6.70
2022-10-20T12:42:50.123Z,8.00
2022-10-20T12:43:50.061Z,8.40
2022-10-20T12:44:50.072Z,9.60
2022-10-20T12:45:50.044Z,10.00
2022-10-20T12:46:50.047Z,10.00
2022-10-20T12:47:50.018Z,6.70
2022-10-20T12:48:50.511Z,5.80
2022-10-20T12:49:50.036Z,7.90
2022-10-20T12:50:49.981Z,7.40
2022-10-20T12:51:50.109Z,7.40
2022-10-20T12:52:49.949Z,5.90
2022-10-20T12:53:49.937Z,9.30
2022-10-20T12:54:49.951Z,7.60
2022-10-20T12:55:49.938Z,9.20
2022-10-20T12:56:49.932Z,10.60
2022-10-20T12:57:49.897Z,14.50
2022-10-20T12:58:49.870Z,11.70
2022-10-20T12:59:49.856Z,9.50
2022-10-20T13:00:49.956Z,12.00
2022-10-20T13:01:49.874Z,6.40
2022-10-20T13:02:49.825Z,10.80
2022-10-20T13:03:49.828Z,10.50
2022-10-20T13:04:49.788Z,9.20
2022-10-20T13:05:49.816Z,8.50
2022-10-20T13:06:49.770Z,7.50